Time;durP1;ratioP1;P1;durP2;ratioP2;P2;SDS_P1;SDS_P2;PMS_P1;PMS_P2;Temp;Humidity;BMP_temperature;BMP_pressure;BME280_temperature;BME280_humidity;BME280_pressure;Samples;Min_cycle;Max_cycle;Signal;HPM_P1;HPM_P2
2021/07/25 00:00:41;;;;;;;15.60;9.23;;;;;;;22.33;71.68;96081.34;5092339;28;20200;-69
2021/07/25 00:03:08;;;;;;;12.27;9.87;;;;;;;22.09;72.76;96092.38;5089711;28;20519;-71
2021/07/25 00:05:34;;;;;;;13.47;9.90;;;;;;;22.02;73.56;96079.25;5091844;28;20911;-70
2021/07/25 00:07:59;;;;;;;12.50;9.20;;;;;;;22.15;72.78;96078.03;5091103;28;20428;-70
2021/07/25 00:10:25;;;;;;;21.30;10.80;;;;;;;22.24;72.38;96065.81;5091382;28;20452;-70
2021/07/25 00:12:51;;;;;;;14.90;11.47;;;;;;;22.34;71.97;96061.63;5091575;28;20174;-71
2021/07/25 00:15:17;;;;;;;17.30;10.53;;;;;;;22.40;72.18;96060.63;5091444;28;20797;-68
2021/07/25 00:17:43;;;;;;;17.80;11.97;;;;;;;22.48;71.71;96056.69;5090676;28;20186;-68
2021/07/25 00:20:09;;;;;;;15.37;9.87;;;;;;;22.42;71.64;96044.34;5090738;28;20197;-68
2021/07/25 00:22:34;;;;;;;14.73;10.30;;;;;;;22.43;72.07;96033.41;5089985;28;20729;-69
2021/07/25 00:25:09;;;;;;;23.27;10.60;;;;;;;22.14;72.61;96035.59;5089956;28;20428;-68
2021/07/25 00:27:40;;;;;;;11.40;9.23;;;;;;;22.29;71.84;96034.91;5090601;28;20264;-69
2021/07/25 00:30:13;;;;;;;13.83;10.07;;;;;;;22.30;71.62;96039.19;5090909;28;20450;-68
2021/07/25 00:32:39;;;;;;;12.70;9.33;;;;;;;22.33;71.42;96054.66;5089835;28;20412;-69
2021/07/25 00:35:05;;;;;;;16.03;10.97;;;;;;;22.32;71.54;96055.72;5091283;28;20477;-69
2021/07/25 00:37:31;;;;;;;12.93;10.00;;;;;;;22.25;71.62;96061.28;5091866;28;20501;-68
2021/07/25 00:39:57;;;;;;;14.90;10.27;;;;;;;22.39;71.35;96059.00;5091784;28;20444;-68
2021/07/25 00:42:23;;;;;;;15.27;10.20;;;;;;;22.36;71.37;96063.00;5089712;28;20259;-69
2021/07/25 00:44:50;;;;;;;17.40;9.53;;;;;;;22.36;71.56;96052.31;5091119;28;20608;-69
2021/07/25 00:47:15;;;;;;;11.83;9.27;;;;;;;22.37;71.29;96069.91;5091680;28;20460;-68
2021/07/25 00:49:41;;;;;;;14.70;10.00;;;;;;;22.32;71.75;96064.56;5090730;28;20251;-69
2021/07/25 00:52:08;;;;;;;12.77;9.30;;;;;;;22.37;71.51;96071.78;5090265;28;20624;-69
2021/07/25 00:54:36;;;;;;;11.57;9.60;;;;;;;22.21;71.84;96071.66;5089809;28;20717;-68
2021/07/25 00:57:02;;;;;;;15.73;9.90;;;;;;;21.98;72.44;96066.66;5091183;28;20451;-68
2021/07/25 00:59:28;;;;;;;11.20;9.57;;;;;;;22.27;71.80;96053.03;5091442;28;20478;-69
2021/07/25 01:01:54;;;;;;;15.53;10.07;;;;;;;22.29;72.05;96045.59;5089519;28;20462;-70
2021/07/25 01:04:25;;;;;;;11.03;9.53;;;;;;;22.35;71.48;96044.56;5089932;28;20193;-70
2021/07/25 01:07:12;;;;;;;13.70;10.30;;;;;;;22.07;72.47;96033.94;5089989;28;20216;-69
2021/07/25 01:10:02;;;;;;;15.00;9.10;;;;;;;22.30;71.37;96010.63;5091285;28;20783;-71
2021/07/25 01:12:51;;;;;;;10.80;8.53;;;;;;;22.42;70.52;96023.00;5093622;28;20424;-70
2021/07/25 01:15:19;;;;;;;15.17;9.40;;;;;;;22.40;70.12;96009.91;5088494;28;20416;-70
2021/07/25 01:17:44;;;;;;;10.30;8.43;;;;;;;22.29;70.79;96002.91;5089762;28;20541;-72
2021/07/25 01:20:11;;;;;;;9.60;8.60;;;;;;;22.27;70.90;95991.66;5090620;28;20530;-70
2021/07/25 01:22:44;;;;;;;12.57;9.40;;;;;;;22.20;71.07;95982.00;5091138;28;20227;-70
2021/07/25 01:25:12;;;;;;;12.10;9.07;;;;;;;22.19;71.03;96001.75;5088639;28;20434;-69
2021/07/25 01:27:44;;;;;;;13.90;9.77;;;;;;;21.84;72.44;96013.75;5090971;28;20439;-70
2021/07/25 01:30:13;;;;;;;12.80;9.47;;;;;;;22.08;71.59;95997.41;5089909;28;20863;-70
2021/07/25 01:32:40;;;;;;;16.43;11.10;;;;;;;22.05;71.60;96000.59;5089807;28;20531;-69
2021/07/25 01:35:07;;;;;;;14.73;9.90;;;;;;;21.90;72.37;96006.59;5091093;28;20443;-70
2021/07/25 01:37:34;;;;;;;13.00;10.70;;;;;;;22.05;72.18;96014.72;5090196;28;20424;-70
2021/07/25 01:39:59;;;;;;;10.80;9.43;;;;;;;22.00;72.90;96028.00;5089315;28;20522;-71
2021/07/25 01:42:29;;;;;;;12.13;10.20;;;;;;;21.15;76.51;96039.16;5090928;28;20481;-69
2021/07/25 01:44:55;;;;;;;14.70;9.80;;;;;;;21.57;75.60;96019.84;5089678;28;20223;-69
2021/07/25 01:47:20;;;;;;;18.90;10.33;;;;;;;21.78;74.41;96001.44;5090715;28;20428;-69
2021/07/25 01:49:46;;;;;;;12.50;9.63;;;;;;;21.96;73.40;95984.25;5090799;28;20289;-69
2021/07/25 01:52:11;;;;;;;12.63;9.50;;;;;;;21.93;72.38;95979.44;5090885;28;20216;-70
2021/07/25 01:54:37;;;;;;;15.00;10.10;;;;;;;21.88;72.97;96011.38;5090160;28;20700;-70
2021/07/25 01:57:03;;;;;;;15.33;12.17;;;;;;;21.68;73.79;96019.97;5090269;28;20186;-70
2021/07/25 01:59:28;;;;;;;14.60;12.10;;;;;;;21.75;73.47;96044.59;5090677;28;20194;-71
2021/07/25 02:01:54;;;;;;;18.10;12.80;;;;;;;21.35;75.83;96037.75;5089904;28;20724;-69
2021/07/25 02:04:20;;;;;;;19.90;13.50;;;;;;;21.32;76.40;96045.19;5089455;28;20185;-72
2021/07/25 02:06:45;;;;;;;17.90;13.70;;;;;;;21.13;76.61;96059.88;5089879;28;20217;-70
2021/07/25 02:09:13;;;;;;;16.10;12.77;;;;;;;20.91;78.33;96049.22;5090381;28;20206;-72
2021/07/25 02:11:39;;;;;;;12.70;11.40;;;;;;;20.92;77.91;96062.28;5090687;28;20217;-69
2021/07/25 02:14:05;;;;;;;15.93;12.63;;;;;;;20.89;77.62;96051.31;5089725;28;20444;-70
2021/07/25 02:16:30;;;;;;;14.90;11.20;;;;;;;20.79;77.95;96036.03;5091343;28;20524;-68
2021/07/25 02:18:56;;;;;;;21.00;10.97;;;;;;;21.35;76.15;96032.41;5094182;28;20546;-69
2021/07/25 02:21:21;;;;;;;14.10;10.80;;;;;;;21.26;76.34;96024.88;5094131;28;20546;-69
2021/07/25 02:23:47;;;;;;;12.70;10.20;;;;;;;21.11;77.12;96036.16;5092939;28;20217;-68
2021/07/25 02:26:13;;;;;;;19.30;10.10;;;;;;;21.59;74.57;96020.44;5094030;28;20647;-69
2021/07/25 02:28:38;;;;;;;11.80;10.43;;;;;;;21.68;73.64;96026.13;5093750;28;20212;-69
2021/07/25 02:31:04;;;;;;;10.90;9.50;;;;;;;21.43;74.37;96011.47;5093975;28;20669;-71
2021/07/25 02:33:30;;;;;;;27.37;9.37;;;;;;;21.53;74.06;96024.09;5090774;28;20177;-69
2021/07/25 02:35:56;;;;;;;12.67;9.40;;;;;;;21.35;74.23;96027.09;5093753;28;20230;-69
2021/07/25 02:38:22;;;;;;;15.00;9.10;;;;;;;21.10;75.33;96017.75;5093355;28;20281;-69
2021/07/25 02:40:48;;;;;;;10.27;8.20;;;;;;;21.41;73.10;96026.91;5092400;28;20869;-68
2021/07/25 02:43:13;;;;;;;10.23;8.03;;;;;;;21.50;72.89;96051.25;5093116;28;20451;-69
2021/07/25 02:45:39;;;;;;;12.10;8.30;;;;;;;21.45;72.75;96043.19;5093717;28;20213;-70
2021/07/25 02:48:05;;;;;;;7.93;7.13;;;;;;;21.31;72.98;96043.56;5093228;28;20185;-69
2021/07/25 02:50:30;;;;;;;12.57;7.53;;;;;;;21.26;73.13;96054.19;5093071;28;20202;-70
2021/07/25 02:52:56;;;;;;;13.30;7.67;;;;;;;21.65;71.77;96055.16;5092920;28;20174;-70
2021/07/25 02:55:21;;;;;;;9.27;7.37;;;;;;;21.71;71.47;96052.31;5093151;28;20178;-69
2021/07/25 02:57:47;;;;;;;10.03;6.97;;;;;;;21.69;71.60;96053.59;5093486;28;20174;-69
2021/07/25 03:00:13;;;;;;;8.90;7.10;;;;;;;21.88;71.00;96052.19;5092450;28;20273;-69
2021/07/25 03:02:39;;;;;;;11.90;6.70;;;;;;;21.93;70.81;96054.09;5091116;28;20734;-69
2021/07/25 03:05:05;;;;;;;8.77;7.10;;;;;;;21.84;71.00;96061.75;5092591;28;20450;-69
2021/07/25 03:07:30;;;;;;;11.00;7.10;;;;;;;21.92;70.96;96058.63;5096019;28;20182;-69
2021/07/25 03:09:56;;;;;;;10.37;8.10;;;;;;;21.91;70.91;96062.34;5092930;28;20937;-70
2021/07/25 03:12:22;;;;;;;11.03;8.30;;;;;;;21.91;70.59;96062.34;5090510;28;20204;-69
2021/07/25 03:14:47;;;;;;;13.90;10.43;;;;;;;21.84;70.66;96060.94;5092837;28;20189;-69
2021/07/25 03:17:13;;;;;;;11.97;10.23;;;;;;;21.89;70.54;96056.47;5092409;28;20182;-71
2021/07/25 03:19:43;;;;;;;11.60;10.00;;;;;;;21.90;70.52;96050.06;5092386;28;20243;-70
2021/07/25 03:22:10;;;;;;;12.13;10.13;;;;;;;21.90;71.20;96044.75;5077613;28;20213;-70
2021/07/25 03:24:36;;;;;;;12.60;10.27;;;;;;;21.74;71.50;96046.44;5092348;28;20451;-68
2021/07/25 03:27:02;;;;;;;14.00;9.70;;;;;;;21.81;71.04;96053.44;5092528;28;20447;-69
2021/07/25 03:29:28;;;;;;;15.50;10.10;;;;;;;21.86;70.74;96043.63;5091604;28;20546;-70
2021/07/25 03:31:53;;;;;;;11.50;10.20;;;;;;;21.85;70.56;96058.03;5091666;28;20688;-71
2021/07/25 03:34:19;;;;;;;16.43;10.57;;;;;;;21.76;70.39;96063.00;5091931;28;20182;-68
2021/07/25 03:36:45;;;;;;;15.37;10.67;;;;;;;21.82;70.36;96055.06;5091178;28;20217;-68
2021/07/25 03:39:13;;;;;;;15.37;10.07;;;;;;;21.79;70.40;96061.72;5092000;28;20688;-68
2021/07/25 03:41:39;;;;;;;13.17;10.40;;;;;;;21.66;70.56;96070.91;5092152;28;20637;-68
2021/07/25 03:44:05;;;;;;;14.23;10.40;;;;;;;21.63;71.03;96077.53;5091846;28;20420;-68
2021/07/25 03:46:31;;;;;;;14.60;10.90;;;;;;;21.65;71.02;96079.16;5092194;28;20182;-69
2021/07/25 03:48:57;;;;;;;11.13;9.40;;;;;;;21.56;71.71;96074.22;5089860;28;20182;-70
2021/07/25 03:51:23;;;;;;;15.80;10.33;;;;;;;21.37;72.39;96079.06;5087923;28;20437;-68
2021/07/25 03:53:48;;;;;;;12.13;9.80;;;;;;;21.52;72.27;96070.47;5085758;28;20819;-69
2021/07/25 03:56:14;;;;;;;13.27;10.63;;;;;;;21.51;72.71;96066.19;5091981;28;20705;-68
2021/07/25 03:58:40;;;;;;;13.47;11.23;;;;;;;21.52;72.99;96070.47;5091954;28;20203;-68
2021/07/25 04:01:05;;;;;;;14.67;12.40;;;;;;;21.49;73.00;96065.63;5091648;28;20201;-70
2021/07/25 04:03:31;;;;;;;21.20;14.30;;;;;;;21.49;72.48;96071.75;5091369;28;20224;-71
2021/07/25 04:05:56;;;;;;;22.10;13.70;;;;;;;21.37;73.52;96072.94;5091138;28;20178;-69
2021/07/25 04:08:22;;;;;;;15.50;13.07;;;;;;;21.46;72.28;96074.13;5091384;28;20667;-68
2021/07/25 04:10:48;;;;;;;17.10;13.30;;;;;;;21.55;72.14;96064.63;5090857;28;20197;-68
2021/07/25 04:13:13;;;;;;;22.47;14.53;;;;;;;21.56;72.39;96063.56;5091468;28;20186;-70
2021/07/25 04:15:40;;;;;;;16.70;11.60;;;;;;;21.56;72.16;96062.78;5091722;28;20189;-68
2021/07/25 04:18:06;;;;;;;12.93;10.97;;;;;;;21.55;71.89;96061.94;5091272;28;20557;-69
2021/07/25 04:20:33;;;;;;;12.40;9.60;;;;;;;21.57;71.43;96065.16;5091458;28;20428;-69
2021/07/25 04:22:59;;;;;;;9.50;8.00;;;;;;;21.57;71.71;96059.06;5082162;28;20455;-70
2021/07/25 04:25:24;;;;;;;9.57;7.67;;;;;;;21.52;71.80;96066.97;5091192;28;20484;-69
2021/07/25 04:27:50;;;;;;;8.77;6.43;;;;;;;20.78;73.91;96077.81;5090161;28;20412;-69
2021/07/25 04:30:16;;;;;;;9.13;6.97;;;;;;;20.91;75.08;96068.69;5090619;28;20205;-69
2021/07/25 04:32:42;;;;;;;7.63;6.90;;;;;;;21.53;72.02;96071.25;5091280;28;20205;-71
2021/07/25 04:35:08;;;;;;;7.47;6.73;;;;;;;21.71;71.34;96076.28;5090943;28;20423;-70
2021/07/25 04:37:37;;;;;;;8.63;7.00;;;;;;;21.83;70.89;96081.47;5091230;28;20189;-70
2021/07/25 04:40:03;;;;;;;9.40;6.93;;;;;;;21.89;70.50;96084.97;5091035;28;21176;-69
2021/07/25 04:42:32;;;;;;;14.23;7.27;;;;;;;21.94;70.52;96083.16;5091231;28;20819;-69
2021/07/25 04:45:02;;;;;;;7.07;6.30;;;;;;;22.01;70.09;96084.84;5089662;28;20420;-68
2021/07/25 04:47:49;;;;;;;9.07;6.17;;;;;;;21.78;71.00;96084.88;5080970;28;20416;-69
2021/07/25 04:50:20;;;;;;;7.17;6.27;;;;;;;21.85;70.74;96078.56;5090849;28;20443;-69
2021/07/25 04:52:51;;;;;;;10.10;5.93;;;;;;;21.40;72.13;96088.44;5080475;28;20459;-68
2021/07/25 04:55:21;;;;;;;8.30;6.10;;;;;;;21.76;71.15;96092.31;5090576;28;20938;-69
2021/07/25 04:57:49;;;;;;;9.73;6.10;;;;;;;21.82;70.69;96095.84;5091096;28;20412;-69
2021/07/25 05:00:15;;;;;;;7.47;6.10;;;;;;;21.98;70.07;96093.34;5095935;28;20448;-68
2021/07/25 05:02:42;;;;;;;9.37;5.70;;;;;;;22.03;69.74;96096.84;5090888;28;20506;-68
2021/07/25 05:05:08;;;;;;;7.80;5.70;;;;;;;22.01;69.88;96103.50;5089555;28;20503;-69
2021/07/25 05:07:40;;;;;;;6.77;6.07;;;;;;;21.92;70.48;96097.81;5089958;28;20961;-71
2021/07/25 05:10:07;;;;;;;11.30;5.70;;;;;;;21.69;70.70;96101.56;5090412;28;20432;-68
2021/07/25 05:12:40;;;;;;;7.37;5.40;;;;;;;21.72;70.70;96106.41;5090575;28;20514;-69
2021/07/25 05:15:11;;;;;;;6.30;5.70;;;;;;;21.48;71.07;96102.13;5090472;28;20461;-68
2021/07/25 05:17:42;;;;;;;5.77;5.07;;;;;;;21.72;70.03;96106.41;5090739;28;20522;-68
2021/07/25 05:20:14;;;;;;;7.50;5.60;;;;;;;21.14;71.33;96106.78;5090182;28;20442;-70
2021/07/25 05:22:45;;;;;;;6.40;5.80;;;;;;;21.59;70.62;96107.59;5085308;28;20455;-68
2021/07/25 05:25:11;;;;;;;7.80;5.53;;;;;;;21.17;71.49;96114.28;5090061;28;20515;-70
2021/07/25 05:27:42;;;;;;;5.73;5.20;;;;;;;21.09;72.23;96114.69;5090053;28;20514;-68
2021/07/25 05:30:10;;;;;;;6.50;5.17;;;;;;;21.40;70.47;96115.09;5088854;28;20205;-69
2021/07/25 05:32:35;;;;;;;5.70;5.20;;;;;;;21.68;69.80;96121.28;5090957;28;20833;-69
2021/07/25 05:35:01;;;;;;;6.00;5.40;;;;;;;21.49;70.88;96121.59;5090498;28;20506;-68
2021/07/25 05:37:26;;;;;;;5.60;5.10;;;;;;;21.35;71.63;96117.69;5090513;28;20235;-69
2021/07/25 05:39:52;;;;;;;6.23;4.83;;;;;;;21.89;69.33;96112.47;5090722;28;20193;-69
2021/07/25 05:42:17;;;;;;;5.73;5.23;;;;;;;22.08;68.86;96114.75;5089649;28;20212;-69
2021/07/25 05:44:43;;;;;;;5.67;5.00;;;;;;;22.40;67.96;96111.31;5089766;28;20186;-69
2021/07/25 05:47:08;;;;;;;5.27;4.77;;;;;;;22.54;67.55;96115.19;5090356;28;20209;-71
2021/07/25 05:49:34;;;;;;;8.20;5.23;;;;;;;22.65;67.30;96117.94;5091402;28;20265;-71
2021/07/25 05:52:00;;;;;;;6.27;4.73;;;;;;;22.47;67.34;96111.94;5093230;28;20645;-68
2021/07/25 05:54:25;;;;;;;9.57;4.70;;;;;;;22.62;67.20;96115.78;5094695;28;20265;-70
2021/07/25 05:56:51;;;;;;;7.10;4.90;;;;;;;22.53;67.20;96105.59;5095115;28;20222;-70
2021/07/25 05:59:16;;;;;;;8.10;4.43;;;;;;;22.74;66.57;96105.72;5093625;28;20289;-69
2021/07/25 06:01:42;;;;;;;4.70;4.20;;;;;;;22.82;66.56;96107.88;5086831;28;20645;-70
2021/07/25 06:04:07;;;;;;;5.30;4.80;;;;;;;22.91;65.59;96107.44;5093964;28;20178;-70
2021/07/25 06:06:34;;;;;;;5.77;4.53;;;;;;;22.85;65.80;96111.94;5093655;28;20280;-68
2021/07/25 06:09:00;;;;;;;5.10;4.60;;;;;;;22.77;66.32;96112.41;5094698;28;20651;-69
2021/07/25 06:11:25;;;;;;;4.93;3.80;;;;;;;23.22;64.82;96110.28;5094516;28;20496;-69
2021/07/25 06:13:52;;;;;;;5.17;4.57;;;;;;;23.20;64.23;96123.09;5094489;28;20193;-68
2021/07/25 06:16:18;;;;;;;5.17;4.67;;;;;;;23.12;65.20;96116.38;5093770;28;20186;-68
2021/07/25 06:18:48;;;;;;;6.23;4.23;;;;;;;23.34;64.21;96118.88;5094216;28;20514;-68
2021/07/25 06:21:18;;;;;;;4.60;4.20;;;;;;;23.12;64.73;96116.38;5094037;28;20552;-68
2021/07/25 06:23:45;;;;;;;6.13;3.80;;;;;;;23.36;64.54;96118.63;5092805;28;20512;-68
2021/07/25 06:26:11;;;;;;;4.90;4.50;;;;;;;23.65;63.02;96119.00;5093998;28;20455;-69
2021/07/25 06:28:36;;;;;;;5.57;4.17;;;;;;;23.95;62.79;96114.78;5094298;28;20505;-69
2021/07/25 06:31:02;;;;;;;7.27;4.17;;;;;;;23.29;64.04;96117.00;5085982;28;20702;-70
2021/07/25 06:33:29;;;;;;;10.00;4.50;;;;;;;23.43;63.12;96117.34;5092703;28;20177;-69
2021/07/25 06:35:55;;;;;;;5.47;4.00;;;;;;;23.79;62.17;96111.28;5093413;28;20185;-68
2021/07/25 06:38:21;;;;;;;15.17;9.43;;;;;;;24.00;61.32;96114.03;5093429;28;21018;-68
2021/07/25 06:40:49;;;;;;;14.33;4.50;;;;;;;24.21;60.57;96106.81;5092694;28;20443;-67
2021/07/25 06:43:15;;;;;;;4.30;4.00;;;;;;;24.35;60.70;96113.25;5093466;28;20244;-69
2021/07/25 06:45:41;;;;;;;5.33;4.20;;;;;;;24.58;59.96;96102.28;5093718;28;20886;-67
2021/07/25 06:48:18;;;;;;;4.80;4.20;;;;;;;24.74;59.75;96105.75;5093406;28;20498;-69
2021/07/25 06:50:46;;;;;;;11.17;8.60;;;;;;;24.85;59.43;96107.34;5093724;28;20957;-66
2021/07/25 06:53:11;;;;;;;12.00;9.53;;;;;;;25.03;60.13;96107.88;5092185;28;20431;-69
2021/07/25 06:55:37;;;;;;;13.43;8.77;;;;;;;25.40;58.58;96098.63;5094934;28;20528;-69
2021/07/25 06:58:02;;;;;;;16.57;9.70;;;;;;;25.28;58.42;96099.75;5093545;28;20185;-70
2021/07/25 07:00:28;;;;;;;13.43;8.60;;;;;;;25.89;57.13;96103.22;5090243;28;20248;-68
2021/07/25 07:02:54;;;;;;;16.13;9.97;;;;;;;26.26;55.76;96100.31;5087385;28;20251;-68
2021/07/25 07:05:21;;;;;;;16.50;8.70;;;;;;;26.42;54.88;96092.94;5093994;28;20213;-68
2021/07/25 07:07:49;;;;;;;10.97;7.50;;;;;;;26.57;54.32;96098.19;5094028;28;20419;-68
2021/07/25 07:10:16;;;;;;;9.70;6.67;;;;;;;26.51;53.93;96085.91;5093214;28;20888;-70
2021/07/25 07:12:43;;;;;;;10.50;5.83;;;;;;;26.29;53.67;96080.97;5093027;28;20426;-67
2021/07/25 07:15:10;;;;;;;8.53;4.40;;;;;;;26.48;52.53;96081.88;5092328;28;20789;-67
2021/07/25 07:17:38;;;;;;;4.83;4.30;;;;;;;26.11;53.42;96093.97;5091144;28;20420;-69
2021/07/25 07:20:08;;;;;;;12.00;4.73;;;;;;;26.13;53.96;96091.81;5092763;28;20985;-67
2021/07/25 07:22:34;;;;;;;10.30;4.63;;;;;;;26.28;53.40;96082.06;5092805;28;20454;-67
2021/07/25 07:25:00;;;;;;;4.50;4.10;;;;;;;26.40;53.56;96085.19;5092722;28;20427;-67
2021/07/25 07:27:27;;;;;;;7.07;5.37;;;;;;;26.50;54.20;96084.28;5092422;28;20428;-68
2021/07/25 07:29:54;;;;;;;6.97;4.43;;;;;;;26.64;53.18;96095.16;5092010;28;20452;-67
2021/07/25 07:32:19;;;;;;;4.63;4.10;;;;;;;26.39;53.46;96090.84;5084140;28;20537;-68
2021/07/25 07:34:45;;;;;;;5.93;4.53;;;;;;;26.47;52.80;96093.69;5091359;28;20930;-68
2021/07/25 07:37:11;;;;;;;8.67;7.83;;;;;;;26.35;52.72;96094.06;5092232;28;20185;-69
2021/07/25 07:39:38;;;;;;;4.27;3.97;;;;;;;26.18;52.99;96099.03;5092197;28;20820;-66
2021/07/25 07:42:04;;;;;;;7.70;7.00;;;;;;;26.24;52.65;96091.75;5092095;28;20680;-67
2021/07/25 07:44:30;;;;;;;7.73;6.20;;;;;;;26.03;53.10;96081.13;5092018;28;20473;-67
2021/07/25 07:46:56;;;;;;;6.50;5.80;;;;;;;26.01;53.43;96086.78;5092452;28;20411;-67
2021/07/25 07:49:22;;;;;;;9.40;6.30;;;;;;;26.09;53.66;96079.22;5092120;28;20547;-67
2021/07/25 07:51:47;;;;;;;12.33;7.17;;;;;;;25.76;54.08;96082.38;5090657;28;20693;-70
2021/07/25 07:54:13;;;;;;;10.93;6.63;;;;;;;25.87;54.18;96075.88;5091449;28;20181;-67
2021/07/25 07:56:39;;;;;;;7.27;6.10;;;;;;;25.60;54.72;96084.34;5092188;28;20178;-68
2021/07/25 07:59:04;;;;;;;5.70;4.97;;;;;;;26.03;53.71;96073.09;5091830;28;20178;-68
2021/07/25 08:01:30;;;;;;;5.43;4.60;;;;;;;26.06;51.53;96070.63;5084345;28;20178;-67
2021/07/25 08:03:55;;;;;;;4.90;4.40;;;;;;;26.64;50.62;96077.19;5091423;28;20209;-68
2021/07/25 08:06:21;;;;;;;3.67;3.37;;;;;;;26.92;48.93;96080.13;5091960;28;20193;-67
2021/07/25 08:08:46;;;;;;;4.27;3.53;;;;;;;26.39;50.09;96086.25;5092028;28;20180;-68
2021/07/25 08:11:12;;;;;;;4.30;3.90;;;;;;;26.98;48.25;96091.63;5090014;28;20300;-67
2021/07/25 08:13:37;;;;;;;4.17;3.80;;;;;;;26.62;49.36;96097.34;5090989;28;20182;-68
2021/07/25 08:16:03;;;;;;;4.80;3.67;;;;;;;26.77;49.42;96093.72;5091519;28;20192;-68
2021/07/25 08:18:29;;;;;;;3.83;3.43;;;;;;;25.82;51.73;96097.38;5091842;28;20201;-68
2021/07/25 08:20:54;;;;;;;9.37;5.83;;;;;;;26.28;50.81;96098.94;5091487;28;20642;-67
2021/07/25 08:23:20;;;;;;;5.93;3.90;;;;;;;26.52;51.12;96101.72;5091140;28;20574;-67
2021/07/25 08:25:46;;;;;;;4.37;3.97;;;;;;;26.55;50.11;96099.56;5091605;28;20222;-69
2021/07/25 08:28:11;;;;;;;5.20;4.20;;;;;;;26.45;50.73;96097.75;5091147;28;20247;-70
2021/07/25 08:30:37;;;;;;;4.03;3.63;;;;;;;26.35;50.77;96101.31;5086143;28;20259;-68
2021/07/25 08:33:03;;;;;;;6.10;4.30;;;;;;;26.22;50.45;96100.88;5087588;28;20174;-68
2021/07/25 08:35:28;;;;;;;4.20;3.90;;;;;;;26.44;50.32;96096.97;5090997;28;20181;-66
2021/07/25 08:37:54;;;;;;;4.50;4.00;;;;;;;26.33;50.83;96095.44;5090912;28;20219;-69
2021/07/25 08:40:24;;;;;;;3.80;3.50;;;;;;;25.82;51.66;96109.97;5091055;28;20209;-68
2021/07/25 08:43:10;;;;;;;5.17;3.73;;;;;;;25.88;51.77;96116.94;5090880;28;20569;-67
2021/07/25 08:45:40;;;;;;;4.23;3.80;;;;;;;26.00;52.09;96108.53;5090530;28;20433;-67
2021/07/25 08:48:17;;;;;;;7.03;4.53;;;;;;;26.06;52.44;96112.78;5091748;28;20419;-68
2021/07/25 08:50:44;;;;;;;6.90;4.10;;;;;;;25.89;53.07;96118.53;5090379;28;21183;-67
2021/07/25 08:53:15;;;;;;;66.87;36.13;;;;;;;25.94;53.39;96106.97;5091083;28;20765;-68
2021/07/25 08:55:42;;;;;;;13.50;7.90;;;;;;;25.92;53.23;96118.78;5090073;28;20451;-69
2021/07/25 08:58:09;;;;;;;20.37;12.40;;;;;;;25.90;53.52;96120.13;5091101;28;20419;-67
2021/07/25 09:00:35;;;;;;;28.57;16.40;;;;;;;25.97;53.32;96125.19;5089600;28;20507;-70
2021/07/25 09:03:05;;;;;;;27.27;15.63;;;;;;;25.85;53.83;96117.47;5085038;28;20910;-67
2021/07/25 09:05:30;;;;;;;32.23;16.60;;;;;;;25.84;54.26;96132.75;5090905;28;20181;-67
2021/07/25 09:07:57;;;;;;;24.53;12.30;;;;;;;25.72;54.58;96129.59;5089774;28;20780;-68
2021/07/25 09:10:23;;;;;;;20.30;10.30;;;;;;;25.41;55.06;96124.38;5091531;28;20205;-68
2021/07/25 09:12:49;;;;;;;15.27;9.70;;;;;;;25.61;55.24;96120.81;5091215;28;20424;-68
2021/07/25 09:15:24;;;;;;;14.63;10.10;;;;;;;25.61;54.98;96118.94;5090886;28;20447;-67
2021/07/25 09:17:50;;;;;;;10.10;6.60;;;;;;;25.62;54.85;96109.03;5090875;28;20795;-67
2021/07/25 09:20:22;;;;;;;11.73;6.90;;;;;;;25.86;54.02;96109.13;5089503;28;20531;-68
2021/07/25 09:22:47;;;;;;;6.73;5.60;;;;;;;26.27;53.06;96104.63;5090760;28;20524;-67
2021/07/25 09:25:34;;;;;;;15.90;9.13;;;;;;;26.11;52.55;96103.94;5094276;28;20426;-68
2021/07/25 09:27:59;;;;;;;7.63;5.80;;;;;;;26.42;52.04;96104.50;5092584;28;20200;-68
2021/07/25 09:30:27;;;;;;;5.90;4.90;;;;;;;26.48;51.45;96119.47;5092699;28;20436;-69
2021/07/25 09:32:53;;;;;;;7.03;5.23;;;;;;;26.55;51.99;96119.16;5090278;28;20174;-68
2021/07/25 09:35:23;;;;;;;8.07;6.03;;;;;;;26.36;53.33;96127.09;5094921;28;20784;-69
2021/07/25 09:37:51;;;;;;;13.70;9.37;;;;;;;26.11;55.05;96136.13;5093621;28;20698;-71
2021/07/25 09:40:24;;;;;;;8.20;6.70;;;;;;;26.06;56.65;96140.41;5094655;28;20466;-66
2021/07/25 09:42:49;;;;;;;7.10;6.40;;;;;;;25.76;56.76;96152.13;5093453;28;20452;-71
2021/07/25 09:45:16;;;;;;;8.27;5.93;;;;;;;25.89;57.87;96143.47;5094381;28;20421;-69
2021/07/25 09:47:43;;;;;;;7.27;6.30;;;;;;;25.80;58.26;96153.19;5093414;28;20201;-68
2021/07/25 09:50:08;;;;;;;6.40;5.80;;;;;;;25.45;57.62;96157.63;5094795;28;20877;-68
2021/07/25 09:52:35;;;;;;;8.07;5.73;;;;;;;25.36;58.23;96154.69;5094642;28;20411;-68
2021/07/25 09:55:03;;;;;;;10.33;8.93;;;;;;;25.33;58.99;96159.78;5094299;28;20275;-70
2021/07/25 09:57:30;;;;;;;6.03;5.33;;;;;;;25.42;57.67;96158.19;5085768;28;20415;-70
2021/07/25 09:59:57;;;;;;;7.73;5.70;;;;;;;25.36;58.29;96165.41;5093372;28;20444;-68
2021/07/25 10:02:33;;;;;;;9.43;5.33;;;;;;;25.23;58.32;96160.63;5086931;28;20871;-67
2021/07/25 10:05:06;;;;;;;6.13;5.53;;;;;;;24.92;60.61;96160.66;5094659;28;20545;-69
2021/07/25 10:07:33;;;;;;;7.03;6.33;;;;;;;24.15;63.52;96156.88;5086842;28;20423;-68
2021/07/25 10:10:02;;;;;;;5.20;4.70;;;;;;;24.44;62.00;96155.56;5092902;28;20522;-69
2021/07/25 10:12:33;;;;;;;6.83;5.30;;;;;;;24.53;61.76;96154.75;5094486;28;20476;-69
2021/07/25 10:15:01;;;;;;;6.20;4.60;;;;;;;24.43;61.80;96167.34;5093240;28;20455;-69
2021/07/25 10:17:34;;;;;;;6.30;5.00;;;;;;;24.32;62.34;96158.50;5092389;28;20815;-73
2021/07/25 10:20:02;;;;;;;5.23;4.43;;;;;;;24.31;61.57;96156.88;5094377;28;20435;-70
2021/07/25 10:22:30;;;;;;;5.77;4.77;;;;;;;24.37;62.13;96151.28;5094125;28;20473;-69
2021/07/25 10:24:59;;;;;;;6.43;4.37;;;;;;;24.44;61.40;96155.56;5093847;28;20500;-71
2021/07/25 10:27:24;;;;;;;10.27;8.43;;;;;;;24.52;61.74;96153.16;5094314;28;20511;-69
2021/07/25 10:29:52;;;;;;;9.00;7.90;;;;;;;24.59;61.63;96152.09;5094285;28;20443;-71
2021/07/25 10:32:19;;;;;;;7.00;4.63;;;;;;;24.36;60.68;96144.31;5086538;28;20215;-71
2021/07/25 10:34:46;;;;;;;5.63;4.57;;;;;;;24.39;61.41;96149.13;5092900;28;20479;-69
2021/07/25 10:37:12;;;;;;;8.90;5.20;;;;;;;24.38;62.02;96147.53;5092894;28;20424;-69
2021/07/25 10:39:43;;;;;;;7.27;5.43;;;;;;;24.47;62.29;96147.00;5093407;28;20849;-69
2021/07/25 10:42:08;;;;;;;6.30;5.30;;;;;;;24.33;61.35;96150.19;5092755;28;20224;-69
2021/07/25 10:44:34;;;;;;;5.47;4.97;;;;;;;24.17;61.71;96145.91;5094044;28;20951;-68
2021/07/25 10:47:18;;;;;;;8.70;6.10;;;;;;;24.13;62.52;96139.47;5094155;28;20211;-68
2021/07/25 10:49:44;;;;;;;5.83;5.23;;;;;;;24.30;62.61;96144.56;5094051;28;20293;-69
2021/07/25 10:52:09;;;;;;;6.13;5.53;;;;;;;24.36;62.68;96148.88;5092819;28;20828;-69
2021/07/25 10:54:46;;;;;;;8.80;6.17;;;;;;;24.40;62.68;96144.56;5092366;28;20192;-71
2021/07/25 10:57:11;;;;;;;6.93;6.07;;;;;;;24.20;62.87;96156.88;5092815;28;20276;-69
2021/07/25 10:59:43;;;;;;;7.17;5.87;;;;;;;23.96;63.38;96166.47;5092799;28;20877;-69
2021/07/25 11:02:33;;;;;;;9.03;6.60;;;;;;;23.95;64.07;96154.13;5086293;28;20579;-69
2021/07/25 11:04:59;;;;;;;9.57;6.70;;;;;;;23.86;64.55;96161.84;5101552;28;20430;-68
2021/07/25 11:07:25;;;;;;;9.20;6.90;;;;;;;23.90;64.41;96157.59;5092642;28;20528;-69
2021/07/25 11:09:57;;;;;;;7.57;6.77;;;;;;;24.03;64.60;96151.78;5092976;28;20526;-71
2021/07/25 11:12:23;;;;;;;8.77;6.80;;;;;;;24.14;63.92;96157.13;5092776;28;20174;-69
2021/07/25 11:14:55;;;;;;;9.03;7.40;;;;;;;24.16;63.76;96149.66;5092804;28;20498;-68
2021/07/25 11:17:45;;;;;;;8.10;7.23;;;;;;;24.28;63.81;96157.41;5092873;28;20462;-71
2021/07/25 11:20:30;;;;;;;7.57;6.47;;;;;;;24.35;63.76;96161.44;5093217;28;20527;-69
2021/07/25 11:22:55;;;;;;;9.50;8.10;;;;;;;24.46;63.82;96158.75;5092175;28;20474;-69
2021/07/25 11:25:46;;;;;;;11.03;7.63;;;;;;;24.10;65.24;96164.06;5091388;28;20428;-69
2021/07/25 11:28:38;;;;;;;7.90;6.40;;;;;;;24.29;64.17;96170.56;5093142;28;20188;-69